Time;durP1;ratioP1;P1;durP2;ratioP2;P2;SDS_P1;SDS_P2;PMS_P1;PMS_P2;Temp;Humidity;BMP_temperature;BMP_pressure;BME280_temperature;BME280_humidity;BME280_pressure;Samples;Min_cycle;Max_cycle;Signal;HPM_P1;HPM_P2
2022/02/17 00:02:03;;;;;;;2.45;0.95;;;;;;;9.39;100.00;97298.84;5097417;28;20358;-80
2022/02/17 00:04:47;;;;;;;2.22;1.20;;;;;;;9.40;100.00;97298.78;5097905;28;20148;-81
2022/02/17 00:07:31;;;;;;;2.80;1.48;;;;;;;9.37;100.00;97280.66;5097926;28;20047;-81
2022/02/17 00:10:18;;;;;;;3.65;1.85;;;;;;;9.25;100.00;97255.28;5097178;28;20044;-80
2022/02/17 00:13:03;;;;;;;1.50;0.75;;;;;;;9.26;100.00;97257.81;5097162;28;20323;-78
2022/02/17 00:15:51;;;;;;;7.22;2.92;;;;;;;9.27;100.00;97251.66;5097042;28;20040;-78
2022/02/17 00:18:35;;;;;;;3.72;1.60;;;;;;;9.20;100.00;97213.78;5097036;28;20048;-80
2022/02/17 00:21:19;;;;;;;2.90;1.25;;;;;;;9.19;100.00;97217.28;5096925;28;20339;-81
2022/02/17 00:24:03;;;;;;;1.60;0.70;;;;;;;9.20;100.00;97194.66;5096931;28;20442;-78
2022/02/17 00:26:48;;;;;;;0.90;0.60;;;;;;;9.17;100.00;97190.47;5097001;28;20040;-77
2022/02/17 00:29:32;;;;;;;1.95;0.70;;;;;;;9.32;100.00;97207.78;5082456;28;20035;-79
2022/02/17 00:32:17;;;;;;;1.30;0.60;;;;;;;9.25;100.00;97184.75;5097486;28;20043;-78
2022/02/17 00:35:02;;;;;;;2.00;1.13;;;;;;;9.22;100.00;97154.44;5097382;28;20035;-81
2022/02/17 00:37:46;;;;;;;3.08;1.23;;;;;;;9.30;100.00;97153.97;5096628;28;20040;-81
2022/02/17 00:40:34;;;;;;;2.08;1.02;;;;;;;9.18;100.00;97141.66;5082751;28;20044;-82
2022/02/17 00:43:18;;;;;;;2.97;0.88;;;;;;;9.08;100.00;97113.50;5096022;28;20040;-80
2022/02/17 00:46:02;;;;;;;3.20;0.90;;;;;;;9.08;100.00;97160.50;5096663;28;20040;-82
2022/02/17 00:48:47;;;;;;;3.72;0.95;;;;;;;9.07;100.00;97150.16;5097236;28;20040;-83
2022/02/17 00:51:33;;;;;;;1.88;0.90;;;;;;;9.06;100.00;97170.19;5097090;28;20044;-80
2022/02/17 00:54:19;;;;;;;3.03;1.00;;;;;;;8.97;100.00;97135.97;5096959;28;20044;-81
2022/02/17 00:57:04;;;;;;;5.32;2.47;;;;;;;9.11;100.00;97141.22;5082153;28;20040;-82
2022/02/17 00:59:48;;;;;;;7.03;2.28;;;;;;;8.99;100.00;97134.13;5096223;28;20327;-83
2022/02/17 01:02:33;;;;;;;4.03;1.90;;;;;;;8.97;100.00;97115.94;5096158;28;20457;-81
2022/02/17 01:05:18;;;;;;;4.05;1.70;;;;;;;8.87;100.00;97086.97;5096832;28;20044;-81
2022/02/17 01:08:03;;;;;;;3.22;2.15;;;;;;;8.79;100.00;97054.41;5096243;28;20115;-81
2022/02/17 01:10:48;;;;;;;2.15;1.10;;;;;;;8.98;100.00;97061.97;5096077;28;20098;-81
2022/02/17 01:13:36;;;;;;;1.80;0.80;;;;;;;8.88;100.00;97062.53;5095867;28;20048;-78
2022/02/17 01:16:21;;;;;;;3.88;1.05;;;;;;;8.81;100.00;97049.97;5095850;28;20040;-78
2022/02/17 01:19:05;;;;;;;2.40;1.23;;;;;;;8.89;100.00;97053.75;5081714;28;20036;-82
2022/02/17 01:21:51;;;;;;;1.23;0.70;;;;;;;8.95;100.00;97055.16;5095683;28;20048;-80
2022/02/17 01:24:36;;;;;;;4.18;1.05;;;;;;;8.93;100.00;97040.50;5081483;28;20127;-81
2022/02/17 01:27:23;;;;;;;5.55;1.17;;;;;;;8.98;100.00;97043.69;5095756;28;20353;-83
2022/02/17 01:30:09;;;;;;;3.65;0.90;;;;;;;8.85;100.00;97047.06;5096474;28;20032;-80
2022/02/17 01:32:54;;;;;;;2.05;0.85;;;;;;;8.97;100.00;97023.72;5095638;28;20044;-81
2022/02/17 01:35:39;;;;;;;1.33;0.60;;;;;;;8.92;100.00;97002.28;5095510;28;20052;-80
2022/02/17 01:38:25;;;;;;;3.10;1.20;;;;;;;8.93;100.00;96998.75;5096293;28;20044;-83
2022/02/17 01:41:09;;;;;;;0.88;0.50;;;;;;;8.80;100.00;96973.41;5095683;28;20043;-81
2022/02/17 01:43:54;;;;;;;3.72;0.80;;;;;;;8.86;100.00;96973.03;5095381;28;20327;-80
2022/02/17 01:46:40;;;;;;;2.80;0.80;;;;;;;8.97;100.00;96961.94;5096098;28;20113;-83
2022/02/17 01:49:25;;;;;;;0.98;0.47;;;;;;;8.97;100.00;96956.69;5096118;28;20043;-79
2022/02/17 01:52:18;;;;;;;1.00;0.60;;;;;;;8.83;100.00;96934.06;5095242;28;20346;-79
2022/02/17 01:55:06;;;;;;;1.38;0.93;;;;;;;8.94;100.00;96920.34;5095539;28;20051;-80
2022/02/17 01:57:52;;;;;;;1.23;0.60;;;;;;;8.94;100.00;96912.53;5095478;28;20040;-78
2022/02/17 02:00:44;;;;;;;1.10;0.70;;;;;;;9.02;100.00;96891.97;5096324;28;20097;-81
2022/02/17 02:03:29;;;;;;;26.38;9.65;;;;;;;9.03;100.00;96884.97;5095225;28;20068;-80
2022/02/17 02:06:15;;;;;;;2.33;1.38;;;;;;;9.04;100.00;96882.28;5095154;28;20435;-79
2022/02/17 02:09:16;;;;;;;1.60;0.90;;;;;;;8.99;100.00;96867.84;5095144;28;20076;-82
2022/02/17 02:12:19;;;;;;;0.98;0.40;;;;;;;9.16;100.00;96867.56;5095061;28;20055;-82
2022/02/17 02:15:05;;;;;;;1.45;0.90;;;;;;;9.07;100.00;96871.63;5095162;28;20139;-83
2022/02/17 02:17:49;;;;;;;1.67;0.98;;;;;;;9.15;100.00;96862.44;5095359;28;20067;-81
2022/02/17 02:20:33;;;;;;;3.25;0.60;;;;;;;9.06;100.00;96856.88;5095114;28;20105;-81
2022/02/17 02:23:19;;;;;;;1.40;0.50;;;;;;;9.16;100.00;96848.44;5080664;28;20436;-80
2022/02/17 02:26:06;;;;;;;0.77;0.40;;;;;;;9.15;100.00;96831.13;5095073;28;20040;-79
2022/02/17 02:28:51;;;;;;;1.27;0.50;;;;;;;9.11;100.00;96830.47;5080852;28;20040;-79
2022/02/17 02:31:38;;;;;;;3.83;0.50;;;;;;;9.22;100.00;96808.88;5094835;28;20401;-81
2022/02/17 02:34:23;;;;;;;3.38;1.80;;;;;;;9.16;100.00;96799.66;5094999;28;20048;-78
2022/02/17 02:37:10;;;;;;;2.47;0.95;;;;;;;8.98;100.00;96780.84;5095030;28;20036;-80
2022/02/17 02:39:55;;;;;;;2.47;1.40;;;;;;;8.88;100.00;96764.97;5095688;28;20055;-79
2022/02/17 02:42:40;;;;;;;3.28;0.85;;;;;;;8.97;100.00;96765.28;5095623;28;20410;-79
2022/02/17 02:45:29;;;;;;;3.20;1.75;;;;;;;8.91;100.00;96756.09;5094808;28;20250;-79
2022/02/17 02:48:15;;;;;;;2.17;1.40;;;;;;;8.99;100.00;96763.41;5094822;28;20354;-81
2022/02/17 02:51:00;;;;;;;2.30;1.25;;;;;;;8.95;100.00;96760.19;5094921;28;20488;-78
2022/02/17 02:53:46;;;;;;;2.78;1.02;;;;;;;8.82;100.00;96734.06;5094933;28;20044;-78
2022/02/17 02:56:31;;;;;;;3.70;1.40;;;;;;;8.91;100.00;96721.34;5080559;28;20044;-78
2022/02/17 02:59:16;;;;;;;1.30;0.55;;;;;;;9.03;100.00;96757.88;5094793;28;20100;-80
2022/02/17 03:02:01;;;;;;;3.22;1.23;;;;;;;9.01;100.00;96735.44;5094735;28;20036;-79
2022/02/17 03:04:45;;;;;;;1.00;0.70;;;;;;;9.04;100.00;96714.34;5096011;28;20044;-79
2022/02/17 03:07:34;;;;;;;0.43;0.28;;;;;;;9.13;100.00;96708.47;5098393;28;20044;-77
2022/02/17 03:10:19;;;;;;;1.88;0.47;;;;;;;9.29;100.00;96710.88;5084010;28;20097;-78
2022/02/17 03:13:04;;;;;;;1.65;0.30;;;;;;;9.30;100.00;96718.63;5084127;28;20040;-79
2022/02/17 03:15:51;;;;;;;1.27;0.20;;;;;;;9.33;100.00;96712.38;5098444;28;20342;-77
2022/02/17 03:18:35;;;;;;;0.93;0.50;;;;;;;9.36;100.00;96696.47;5098204;28;20040;-78
2022/02/17 03:21:22;;;;;;;1.13;0.30;;;;;;;9.55;100.00;96701.25;5098828;28;20043;-80
2022/02/17 03:24:07;;;;;;;3.22;0.10;;;;;;;9.82;100.00;96667.94;5098049;28;20036;-79
2022/02/17 03:27:01;;;;;;;0.20;0.10;;;;;;;9.84;100.00;96691.34;5085153;28;20330;-78
2022/02/17 03:29:45;;;;;;;0.17;0.10;;;;;;;9.87;100.00;96685.06;5098030;28;20040;-77
2022/02/17 03:32:34;;;;;;;0.40;0.10;;;;;;;9.84;100.00;96673.88;5097972;28;20133;-77
2022/02/17 03:35:19;;;;;;;2.00;0.10;;;;;;;9.92;100.00;96672.50;5083802;28;20051;-77
2022/02/17 03:38:04;;;;;;;0.70;0.28;;;;;;;9.96;100.00;96663.50;5083723;28;20434;-78
2022/02/17 03:40:51;;;;;;;0.32;0.28;;;;;;;10.02;100.00;96653.44;5083989;28;20089;-80
2022/02/17 03:43:38;;;;;;;1.13;0.22;;;;;;;10.05;100.00;96647.97;5083792;28;20064;-77
2022/02/17 03:46:23;;;;;;;2.60;1.23;;;;;;;10.19;100.00;96633.06;5098409;28;20445;-77
2022/02/17 03:49:07;;;;;;;3.35;1.50;;;;;;;10.25;100.00;96641.28;5097577;28;20040;-81
2022/02/17 03:51:53;;;;;;;3.00;0.80;;;;;;;10.27;100.00;96636.00;5097583;28;20047;-79
2022/02/17 03:54:38;;;;;;;5.43;2.40;;;;;;;10.26;100.00;96624.66;5097450;28;20434;-79
2022/02/17 03:57:28;;;;;;;6.43;2.28;;;;;;;10.43;100.00;96628.66;5097394;28;20040;-77
2022/02/17 04:00:16;;;;;;;9.20;4.05;;;;;;;10.52;100.00;96629.75;5097411;28;20044;-78
2022/02/17 04:03:04;;;;;;;12.93;7.18;;;;;;;10.57;100.00;96611.94;5098070;28;20051;-79
2022/02/17 04:05:52;;;;;;;25.30;13.65;;;;;;;10.61;100.00;96604.69;5097248;28;20342;-78
2022/02/17 04:08:36;;;;;;;17.45;7.15;;;;;;;10.58;100.00;96618.00;5097979;28;20062;-78
2022/02/17 04:11:20;;;;;;;6.78;2.60;;;;;;;10.64;100.00;96599.22;5097242;28;20040;-80
2022/02/17 04:14:06;;;;;;;3.13;1.70;;;;;;;10.69;100.00;96597.06;5097418;28;20059;-78
2022/02/17 04:16:54;;;;;;;10.38;5.15;;;;;;;10.69;100.00;96579.59;5095871;28;20119;-80
2022/02/17 04:19:49;;;;;;;11.23;4.53;;;;;;;10.62;100.00;96604.53;5097103;28;20048;-77
2022/02/17 04:22:49;;;;;;;0.45;0.32;;;;;;;10.68;100.00;96944.34;5096746;28;20052;-75
2022/02/17 11:27:57;;;;;;;5.68;1.20;;;;;;;11.14;73.85;96954.16;5114659;27;20834;-78
2022/02/17 11:30:56;;;;;;;4.72;1.20;;;;;;;10.98;75.93;96977.16;5113148;28;20397;-78
2022/02/17 11:33:52;;;;;;;4.50;1.95;;;;;;;10.71;73.98;96979.97;5142258;27;20116;-78
2022/02/17 11:36:37;;;;;;;6.35;1.25;;;;;;;10.81;73.27;96985.38;5113702;28;20040;-78
2022/02/17 11:39:21;;;;;;;4.55;0.77;;;;;;;10.77;73.69;96966.44;5113265;28;20040;-77
2022/02/17 11:42:06;;;;;;;5.18;0.60;;;;;;;10.71;74.25;96967.69;5113697;28;20043;-77
2022/02/17 11:45:12;;;;;;;5.50;0.98;;;;;;;10.75;72.35;96976.16;5113021;28;20043;-78
2022/02/17 11:48:10;;;;;;;8.40;4.00;;;;;;;10.71;72.13;96986.03;5112937;28;20040;-78
2022/02/17 11:51:10;;;;;;;8.93;3.00;;;;;;;10.70;70.97;96994.00;5112820;28;20047;-78
2022/02/17 11:54:15;;;;;;;5.93;1.48;;;;;;;10.57;72.11;96998.41;5098402;28;20032;-78
2022/02/17 11:56:59;;;;;;;9.07;2.70;;;;;;;10.49;72.14;96981.44;5113373;28;20040;-78
2022/02/17 11:59:46;;;;;;;11.95;3.90;;;;;;;10.21;73.45;96940.63;5112790;28;20055;-78
2022/02/17 12:02:41;;;;;;;9.25;3.50;;;;;;;10.65;72.25;97007.38;5112801;28;20051;-78
2022/02/17 12:05:28;;;;;;;8.98;3.35;;;;;;;10.58;72.40;96993.06;5098422;28;20036;-77
2022/02/17 12:08:24;;;;;;;5.70;2.60;;;;;;;10.46;73.85;97007.84;5112837;28;20451;-79
2022/02/17 12:11:31;;;;;;;8.07;3.80;;;;;;;10.00;78.65;97042.28;5098134;28;20379;-78
2022/02/17 12:14:20;;;;;;;12.65;4.13;;;;;;;9.98;77.92;97038.97;5092104;28;20040;-78
2022/02/17 12:17:07;;;;;;;30.75;8.82;;;;;;;9.92;79.57;97051.59;5093230;28;20486;-78
2022/02/17 12:20:05;;;;;;;30.92;9.98;;;;;;;9.97;80.29;97031.19;5078132;28;20427;-77
2022/02/17 12:23:06;;;;;;;5.70;2.20;;;;;;;9.93;79.40;97041.03;5091900;28;20344;-78
2022/02/17 12:25:51;;;;;;;8.90;1.92;;;;;;;9.96;80.11;96991.16;5092318;28;20333;-79
2022/02/17 12:28:36;;;;;;;9.43;2.40;;;;;;;9.74;81.35;97010.03;5097099;28;20048;-77
2022/02/17 12:31:36;;;;;;;5.03;1.55;;;;;;;9.85;78.80;97082.53;5121119;28;20064;-78
2022/02/17 12:34:21;;;;;;;8.32;4.45;;;;;;;9.75;79.14;97044.84;5077498;28;20051;-77
2022/02/17 12:37:15;;;;;;;40.45;15.30;;;;;;;9.77;81.86;97072.56;5088124;28;20066;-77
2022/02/17 12:40:00;;;;;;;24.00;8.98;;;;;;;9.78;82.81;97081.22;5078615;28;20351;-77
2022/02/17 12:43:04;;;;;;;17.33;7.47;;;;;;;9.90;80.59;97066.53;5072867;28;20063;-76
2022/02/17 12:45:51;;;;;;;14.82;5.07;;;;;;;9.99;81.55;97063.31;5048969;28;20410;-77
2022/02/17 12:48:39;;;;;;;9.60;2.25;;;;;;;10.11;80.40;97080.81;5059631;28;23362;-78
2022/02/17 12:51:36;;;;;;;12.63;5.10;;;;;;;9.93;80.27;97043.66;5093038;27;20824;-78
2022/02/17 12:54:21;;;;;;;10.55;3.95;;;;;;;10.14;79.74;97085.00;5091092;28;20044;-78
2022/02/17 12:57:12;;;;;;;56.60;28.42;;;;;;;10.02;79.25;97090.09;5036998;28;20511;-77
2022/02/17 12:59:58;;;;;;;8.02;1.50;;;;;;;10.02;79.65;97061.34;5034995;28;20052;-77
2022/02/17 13:02:43;;;;;;;4.18;0.73;;;;;;;9.84;83.34;97133.97;5051555;28;20037;-77
2022/02/17 13:06:17;;;;;;;3.83;1.25;;;;;;;9.54;87.37;97160.28;5050961;28;20037;-77
2022/02/17 13:08:53;;;;;;;5.57;1.70;;;;;;;9.36;92.26;97162.28;5052378;28;20048;-78
2022/02/17 13:11:37;;;;;;;6.95;1.35;;;;;;;9.15;94.09;97170.59;5052464;28;20440;-77
2022/02/17 13:14:32;;;;;;;7.45;1.75;;;;;;;8.95;94.83;97166.56;5050547;28;20045;-77
2022/02/17 13:17:23;;;;;;;5.40;0.95;;;;;;;8.86;95.04;97179.22;5069517;28;20060;-77
2022/02/17 13:20:26;;;;;;;4.45;1.25;;;;;;;8.71;98.02;97206.25;5070958;28;20044;-77
2022/02/17 13:23:19;;;;;;;4.88;0.93;;;;;;;8.70;96.61;97190.66;5070871;28;20044;-77
2022/02/17 13:26:04;;;;;;;14.75;5.68;;;;;;;8.36;96.69;97180.41;5070189;28;20041;-78
2022/02/17 13:28:52;;;;;;;2.80;1.08;;;;;;;8.45;97.35;97199.06;5070160;28;20044;-78
2022/02/17 13:31:39;;;;;;;3.85;1.05;;;;;;;8.33;98.53;97235.34;5071343;28;20045;-77
2022/02/17 13:34:29;;;;;;;4.05;1.48;;;;;;;8.20;100.00;97229.16;5072146;28;20044;-77
2022/02/17 13:37:13;;;;;;;12.35;2.33;;;;;;;8.12;100.00;97215.69;5072195;28;20040;-77
2022/02/17 13:39:59;;;;;;;5.68;1.75;;;;;;;8.07;100.00;97243.78;5072307;28;20049;-77
2022/02/17 13:42:56;;;;;;;5.43;1.33;;;;;;;8.01;100.00;97202.41;5071866;28;20049;-77
2022/02/17 13:45:45;;;;;;;8.60;1.70;;;;;;;7.96;100.00;97213.94;5072471;28;20044;-77
2022/02/17 13:48:34;;;;;;;6.38;2.38;;;;;;;8.02;100.00;97233.59;5072141;28;20047;-77
2022/02/17 13:51:19;;;;;;;5.60;1.42;;;;;;;8.02;100.00;97212.75;5071830;28;20052;-77
2022/02/17 13:54:03;;;;;;;16.88;6.25;;;;;;;8.07;100.00;97221.16;5057282;28;20045;-77
2022/02/17 13:56:49;;;;;;;6.60;2.85;;;;;;;8.08;100.00;97235.88;5071087;28;20407;-77
2022/02/17 13:59:33;;;;;;;11.32;3.80;;;;;;;8.13;100.00;97238.25;5071551;28;20048;-78
2022/02/17 14:02:31;;;;;;;9.80;2.70;;;;;;;8.29;98.33;97246.88;5061622;28;20162;-77
2022/02/17 14:05:18;;;;;;;6.90;1.52;;;;;;;8.23;96.08;97244.63;5057496;28;20116;-77
2022/02/17 14:08:03;;;;;;;7.82;2.50;;;;;;;8.28;93.91;97234.75;5058400;28;20107;-77
2022/02/17 14:10:48;;;;;;;4.78;1.77;;;;;;;8.23;95.14;97257.66;5058002;28;20041;-78
2022/02/17 14:13:33;;;;;;;12.68;3.30;;;;;;;8.23;94.06;97255.06;5058861;28;20037;-77
2022/02/17 14:16:17;;;;;;;9.27;1.80;;;;;;;8.21;90.27;97233.44;5043835;28;20449;-77
2022/02/17 14:19:02;;;;;;;10.20;2.40;;;;;;;8.45;86.73;97283.41;5043650;28;20045;-77
2022/02/17 14:21:46;;;;;;;3.38;1.77;;;;;;;8.57;83.86;97290.53;5057925;28;20041;-77
2022/02/17 14:24:31;;;;;;;11.57;2.88;;;;;;;8.59;81.59;97233.06;5057739;28;20048;-77
2022/02/17 14:27:16;;;;;;;7.75;3.15;;;;;;;8.63;81.06;97269.31;5057689;28;20052;-77
2022/02/17 14:30:00;;;;;;;239.05;105.63;;;;;;;8.55;82.26;97302.00;5057717;28;20078;-78
2022/02/17 14:32:44;;;;;;;175.77;77.70;;;;;;;8.64;81.97;97307.53;5056532;28;20114;-78
2022/02/17 14:35:29;;;;;;;5.55;1.98;;;;;;;8.61;80.40;97286.84;5056024;28;20425;-77
2022/02/17 14:38:15;;;;;;;14.52;5.75;;;;;;;8.55;79.94;97273.31;5055678;28;20128;-79
2022/02/17 14:41:00;;;;;;;31.13;4.90;;;;;;;8.55;78.38;97320.25;5041736;28;20045;-78
2022/02/17 14:43:44;;;;;;;8.00;3.20;;;;;;;8.59;79.05;97337.41;5056095;28;20078;-77
2022/02/17 14:46:28;;;;;;;70.75;27.40;;;;;;;8.27;82.85;97352.19;5056111;28;20041;-77
2022/02/17 14:49:13;;;;;;;7.38;1.95;;;;;;;7.92;95.05;97344.50;5042780;28;20098;-78
2022/02/17 14:51:58;;;;;;;15.43;4.75;;;;;;;7.63;99.24;97380.75;5057584;28;20048;-77
2022/02/17 14:54:42;;;;;;;24.02;16.55;;;;;;;7.67;97.90;97400.53;5057050;28;20057;-76
2022/02/17 14:57:26;;;;;;;13.43;7.07;;;;;;;7.61;94.40;97386.97;5058333;28;20111;-76
2022/02/17 15:00:12;;;;;;;9.52;5.63;;;;;;;7.53;97.01;97394.31;5057549;28;20325;-76
2022/02/17 15:02:57;;;;;;;129.43;54.78;;;;;;;7.47;98.25;97405.91;5042974;28;20068;-76
2022/02/17 15:05:43;;;;;;;55.13;20.02;;;;;;;7.60;97.77;97413.94;5057804;28;20041;-77
2022/02/17 15:08:27;;;;;;;94.65;40.75;;;;;;;7.41;98.57;97416.63;5056901;28;20106;-76
2022/02/17 15:11:12;;;;;;;160.10;68.15;;;;;;;7.41;99.82;97412.28;5056869;28;20053;-76
2022/02/17 15:13:56;;;;;;;40.83;22.83;;;;;;;7.40;98.86;97422.75;5055913;28;20041;-76
2022/02/17 15:16:42;;;;;;;21.83;10.75;;;;;;;7.50;98.45;97439.59;5056756;28;20095;-76
2022/02/17 15:22:29;;;;;;;12.13;4.50;;;;;;;7.36;100.00;97461.13;5057656;28;20163;-76
2022/02/17 15:25:14;;;;;;;9.70;4.78;;;;;;;7.29;100.00;97436.31;5042720;28;20056;-74
2022/02/17 15:27:59;;;;;;;4.93;2.80;;;;;;;7.15;100.00;97443.94;5057258;28;20044;-75
2022/02/17 15:30:44;;;;;;;7.35;3.30;;;;;;;7.06;100.00;97470.44;5056992;28;20398;-74
2022/02/17 15:33:29;;;;;;;8.82;4.63;;;;;;;6.98;100.00;97456.00;5056364;28;20041;-75
2022/02/17 15:36:15;;;;;;;11.07;3.30;;;;;;;7.09;100.00;97445.09;5056248;28;20037;-74
2022/02/17 15:38:59;;;;;;;12.68;5.53;;;;;;;6.93;100.00;97491.00;5056372;28;20082;-74
2022/02/17 15:41:44;;;;;;;12.25;2.75;;;;;;;6.95;100.00;97502.16;5056703;28;20124;-75
2022/02/17 15:44:34;;;;;;;8.32;2.17;;;;;;;6.85;100.00;97509.56;5056626;28;20041;-75
2022/02/17 15:47:19;;;;;;;14.15;4.88;;;;;;;6.79;100.00;97534.13;5056412;28;20079;-75
2022/02/17 15:50:04;;;;;;;18.38;6.95;;;;;;;6.63;100.00;97559.13;5056674;28;20061;-75
2022/02/17 15:52:50;;;;;;;19.83;7.88;;;;;;;6.45;100.00;97578.16;5056001;28;20395;-75
2022/02/17 15:55:34;;;;;;;30.85;13.30;;;;;;;6.05;100.00;97600.66;5055910;28;20098;-75
2022/02/17 15:58:18;;;;;;;9.68;3.90;;;;;;;5.63;100.00;97628.28;5056259;28;20048;-76
2022/02/17 16:01:03;;;;;;;27.77;13.70;;;;;;;5.33;100.00;97645.03;5057153;28;20440;-76
2022/02/17 16:03:48;;;;;;;19.70;11.45;;;;;;;5.02;100.00;97660.91;5056161;28;20110;-76
2022/02/17 16:06:32;;;;;;;19.38;10.10;;;;;;;4.92;100.00;97650.03;5056358;28;20071;-76
2022/02/17 16:09:16;;;;;;;10.93;5.60;;;;;;;4.76;100.00;97661.88;5056944;28;20052;-75
2022/02/17 16:12:01;;;;;;;6.93;2.95;;;;;;;4.75;100.00;97653.25;5056026;28;20122;-76
2022/02/17 16:14:46;;;;;;;12.50;5.70;;;;;;;4.62;100.00;97663.19;5056425;28;20045;-75
2022/02/17 16:17:30;;;;;;;2.42;1.70;;;;;;;4.73;100.00;97665.41;5055976;28;20313;-76
2022/02/17 16:20:15;;;;;;;23.00;11.48;;;;;;;4.72;100.00;97666.31;5056642;28;20044;-76
2022/02/17 16:22:59;;;;;;;18.17;9.77;;;;;;;4.70;100.00;97678.47;5055848;28;20124;-76
2022/02/17 16:25:43;;;;;;;6.18;2.50;;;;;;;4.59;100.00;97684.03;5055321;28;20052;-75
2022/02/17 16:28:27;;;;;;;13.68;5.90;;;;;;;4.65;100.00;97707.19;5056466;28;20033;-76
2022/02/17 16:31:12;;;;;;;16.60;9.50;;;;;;;4.58;100.00;97697.91;5035225;28;20049;-76
2022/02/17 16:33:56;;;;;;;25.55;13.68;;;;;;;4.59;100.00;97704.78;5036105;28;20041;-76
2022/02/17 16:36:41;;;;;;;13.40;6.80;;;;;;;4.61;100.00;97715.94;5023978;28;20053;-76
2022/02/17 16:39:26;;;;;;;9.15;5.28;;;;;;;4.59;100.00;97733.31;5035371;28;20045;-76
2022/02/17 16:42:11;;;;;;;10.35;7.07;;;;;;;4.59;100.00;97733.31;5035885;28;20050;-76
2022/02/17 16:44:55;;;;;;;3.67;2.50;;;;;;;4.62;100.00;97751.38;5035182;28;20053;-76
2022/02/17 16:47:46;;;;;;;8.18;4.57;;;;;;;4.58;100.00;97736.81;5034312;28;20056;-76
2022/02/17 16:50:30;;;;;;;5.93;2.70;;;;;;;4.58;100.00;97764.47;5033048;28;20072;-76
2022/02/17 16:53:15;;;;;;;4.95;3.20;;;;;;;4.56;100.00;97751.56;5047363;28;20488;-76
2022/02/17 16:56:00;;;;;;;6.28;2.88;;;;;;;4.75;100.00;97764.75;5034094;28;20065;-75
2022/02/17 16:58:45;;;;;;;7.82;4.10;;;;;;;4.72;100.00;97774.41;5034132;28;20052;-75
2022/02/17 17:01:30;;;;;;;4.95;2.78;;;;;;;4.81;100.00;97790.50;5047434;28;20437;-75
2022/02/17 17:04:16;;;;;;;9.52;4.57;;;;;;;4.86;100.00;97783.38;5034810;28;20045;-75
2022/02/17 17:07:01;;;;;;;17.17;7.85;;;;;;;4.78;100.00;97790.59;5035678;28;20116;-75
2022/02/17 17:09:46;;;;;;;8.57;5.80;;;;;;;4.65;100.00;97766.81;5049013;28;20064;-75
2022/02/17 17:12:30;;;;;;;6.50;3.92;;;;;;;4.75;100.00;97782.91;5035291;28;20040;-75
2022/02/17 17:15:17;;;;;;;8.55;5.10;;;;;;;4.85;100.00;97799.03;5049044;28;20430;-75
2022/02/17 17:18:01;;;;;;;10.48;5.47;;;;;;;4.77;100.00;97807.03;5048917;28;20041;-76
2022/02/17 17:20:46;;;;;;;7.03;2.75;;;;;;;4.88;100.00;97823.09;5035659;28;20041;-76
2022/02/17 17:23:30;;;;;;;4.32;1.98;;;;;;;4.78;100.00;97794.94;5034870;28;20050;-75
2022/02/17 17:26:14;;;;;;;4.63;1.02;;;;;;;4.95;100.00;97830.69;5034843;28;20478;-75
2022/02/17 17:28:59;;;;;;;4.55;1.83;;;;;;;4.99;100.00;97794.19;5034787;28;20041;-75
2022/02/17 17:31:43;;;;;;;6.70;4.07;;;;;;;4.95;100.00;97818.56;5035472;28;20350;-75
2022/02/17 17:34:27;;;;;;;15.40;8.45;;;;;;;5.11;100.00;97822.31;5034706;28;20041;-75
2022/02/17 17:37:14;;;;;;;5.65;1.90;;;;;;;5.05;100.00;97808.72;5050470;28;20326;-75
2022/02/17 17:40:00;;;;;;;6.10;3.95;;;;;;;5.01;100.00;97843.47;5038546;28;20438;-76
2022/02/17 17:42:44;;;;;;;5.53;2.00;;;;;;;5.22;100.00;97841.88;5038585;28;20049;-75
2022/02/17 17:45:29;;;;;;;11.05;6.85;;;;;;;4.58;100.00;97767.94;5052523;28;20060;-75
2022/02/17 17:48:15;;;;;;;19.45;9.98;;;;;;;5.20;100.00;97864.41;5052463;28;20052;-75
2022/02/17 17:51:03;;;;;;;21.60;11.02;;;;;;;5.28;100.00;97859.81;5037956;28;20156;-76
2022/02/17 17:53:49;;;;;;;23.65;12.38;;;;;;;5.33;100.00;97866.56;5038318;28;20440;-75
2022/02/17 17:56:34;;;;;;;22.73;11.15;;;;;;;5.32;100.00;97888.22;5038971;28;20041;-75
2022/02/17 17:59:24;;;;;;;35.28;21.65;;;;;;;5.34;100.00;97870.84;5038121;28;20103;-75
2022/02/17 18:02:08;;;;;;;14.65;5.60;;;;;;;5.41;100.00;97883.63;5052052;28;20164;-75
2022/02/17 18:04:53;;;;;;;10.73;5.18;;;;;;;5.43;100.00;97887.88;5038056;28;20053;-75
2022/02/17 18:07:40;;;;;;;7.78;3.17;;;;;;;5.33;100.00;97910.69;5038114;28;20103;-75
2022/02/17 18:10:25;;;;;;;9.43;4.13;;;;;;;5.42;100.00;97914.72;5037871;28;20437;-75
2022/02/17 18:13:10;;;;;;;5.22;2.42;;;;;;;5.39;100.00;97920.00;5037869;28;20045;-75
2022/02/17 18:15:56;;;;;;;5.13;1.45;;;;;;;5.39;100.00;97917.41;5038501;28;20490;-75
2022/02/17 18:18:42;;;;;;;6.53;2.00;;;;;;;5.34;100.00;97907.19;5037800;28;20050;-75
2022/02/17 18:21:26;;;;;;;2.53;1.15;;;;;;;5.32;100.00;97921.97;5051810;28;20049;-75
2022/02/17 18:24:11;;;;;;;6.72;2.08;;;;;;;5.27;100.00;97920.44;5023631;28;20144;-75
2022/02/17 18:26:56;;;;;;;3.90;1.35;;;;;;;5.32;100.00;97952.28;5037588;28;20111;-75
2022/02/17 18:29:40;;;;;;;13.02;5.30;;;;;;;5.28;100.00;97954.13;5038308;28;20048;-75
2022/02/17 18:32:25;;;;;;;9.52;4.30;;;;;;;5.27;100.00;97967.16;5023583;28;20045;-75
2022/02/17 18:35:10;;;;;;;8.23;4.65;;;;;;;5.38;100.00;97958.09;5038175;28;20037;-75
2022/02/17 18:37:54;;;;;;;10.77;4.32;;;;;;;5.37;100.00;97963.38;5037476;28;20037;-76
2022/02/17 18:40:39;;;;;;;7.38;2.15;;;;;;;5.27;100.00;97951.59;5051454;28;20057;-76
2022/02/17 18:43:23;;;;;;;9.43;3.45;;;;;;;5.20;100.00;97960.44;5037340;28;20426;-76
2022/02/17 18:46:08;;;;;;;17.48;6.25;;;;;;;5.19;100.00;97989.91;5037990;28;20072;-76
2022/02/17 18:48:53;;;;;;;12.82;5.30;;;;;;;5.13;100.00;98019.50;5037156;28;20049;-76
2022/02/17 18:51:38;;;;;;;55.33;29.88;;;;;;;4.96;100.00;98017.44;5037091;28;20121;-76
2022/02/17 18:54:22;;;;;;;33.53;15.95;;;;;;;4.84;100.00;98026.47;5023205;28;20072;-76
2022/02/17 18:57:06;;;;;;;13.27;5.78;;;;;;;4.89;100.00;98023.72;5037031;28;20045;-76
2022/02/17 18:59:51;;;;;;;5.28;2.40;;;;;;;4.89;100.00;98015.94;5037969;28;20053;-76
2022/02/17 19:02:36;;;;;;;7.25;3.30;;;;;;;4.77;100.00;98001.56;5037001;28;20053;-76
2022/02/17 19:05:21;;;;;;;35.45;13.20;;;;;;;4.69;100.00;98017.38;5037034;28;20056;-76
2022/02/17 19:08:05;;;;;;;59.22;23.48;;;;;;;4.78;100.00;98015.41;5036828;28;20121;-76
2022/02/17 19:10:52;;;;;;;14.95;9.15;;;;;;;4.82;100.00;98030.84;5037316;28;20042;-76
2022/02/17 19:13:38;;;;;;;35.53;21.35;;;;;;;4.80;100.00;98009.25;5037571;28;20430;-76
2022/02/17 19:16:23;;;;;;;48.55;35.42;;;;;;;4.80;100.00;98014.44;5036712;28;20040;-75
2022/02/17 19:19:10;;;;;;;13.18;8.90;;;;;;;4.81;100.00;98018.75;5036598;28;20116;-75
2022/02/17 19:21:54;;;;;;;19.15;12.75;;;;;;;4.67;100.00;98039.91;5036667;28;20449;-76
2022/02/17 19:24:39;;;;;;;14.48;8.50;;;;;;;4.65;100.00;98027.91;5036551;28;20045;-75
2022/02/17 19:27:26;;;;;;;28.95;18.35;;;;;;;4.68;100.00;98041.63;5050595;28;20046;-76
2022/02/17 19:30:10;;;;;;;10.82;4.63;;;;;;;4.70;100.00;98051.94;5037002;28;20042;-75
2022/02/17 19:32:58;;;;;;;18.63;7.75;;;;;;;4.58;100.00;98053.16;5050281;28;20042;-75
2022/02/17 19:35:42;;;;;;;9.65;3.30;;;;;;;4.56;100.00;98062.72;5050466;28;20041;-75
2022/02/17 19:38:27;;;;;;;18.25;5.65;;;;;;;4.69;100.00;98069.25;5037041;28;20038;-75
2022/02/17 19:41:11;;;;;;;13.95;5.25;;;;;;;4.73;100.00;98077.78;5050188;28;20045;-75
2022/02/17 19:43:56;;;;;;;9.35;3.67;;;;;;;4.71;100.00;98071.78;5022208;28;20064;-75
2022/02/17 19:46:40;;;;;;;15.13;4.57;;;;;;;4.69;100.00;98079.63;5036267;28;20123;-75
2022/02/17 19:49:26;;;;;;;9.98;2.13;;;;;;;4.76;100.00;98059.53;5036682;28;20041;-75
2022/02/17 19:52:12;;;;;;;11.10;4.22;;;;;;;4.73;100.00;98063.97;5050116;28;20044;-75
2022/02/17 19:54:57;;;;;;;9.40;3.03;;;;;;;4.66;100.00;98084.06;5050069;28;20111;-75
2022/02/17 19:57:42;;;;;;;10.20;3.33;;;;;;;4.75;100.00;98090.72;5049933;28;20048;-75
2022/02/17 20:00:27;;;;;;;8.27;2.28;;;;;;;4.76;100.00;98092.41;5036148;28;20052;-75
2022/02/17 20:03:11;;;;;;;9.60;2.67;;;;;;;4.73;100.00;98098.53;5049859;28;20121;-75
2022/02/17 20:05:55;;;;;;;9.18;2.85;;;;;;;4.67;100.00;98103.91;5021830;28;20371;-75
2022/02/17 20:08:40;;;;;;;8.57;2.75;;;;;;;4.72;100.00;98098.59;5035867;28;20046;-75